INCM7: Indian Creek near Lanagan, MO

                                SHEF ID:       INCM7     Indian Creek near Lanagan, MO
STATION TYPE:

PRECIP STAGE RIV-FLOW BAT-LOAD
in ft cfs volt
Ccp-Rev Ccp-Rev Ccp-Rev Ccp-Rev
(America/Chicago)
06/20 00:00 0.00 1.40 117 12.65
06/20 01:00 0.00 1.40 117 12.60
06/20 02:00 0.00 1.39 115 12.60
06/20 03:00 0.00 1.40 117 12.54
06/20 04:00 0.00 1.40 117 12.54
06/20 05:00 0.00 1.39 115 12.54
06/20 06:00 0.00 1.40 117 12.48
06/20 07:00 0.00 1.40 117 12.54
06/20 08:00 0.00 1.41 119 12.77
06/20 09:00 0.00 1.39 115 13.00
06/20 10:00 0.00 1.40 117 13.12
06/20 11:00 0.00 1.42 122 13.36
06/20 12:00 0.00 1.40 117 13.30
06/20 13:00 0.00 1.38 113 13.65
06/20 14:00 0.00 1.38 113 13.24
06/20 15:00 0.00 1.40 117 13.24
06/20 16:00 0.00 1.39 115 12.95
06/20 17:00 0.00 1.38 113 13.12
06/20 18:00 0.00 1.38 113 13.12
06/20 19:00 0.00 1.38 113 13.00
06/20 20:00 0.00 1.36 110 12.83
06/20 21:00 ---- ---- ---- ----
06/20 22:00 ---- ---- ---- ----
06/20 23:00 ---- ---- ---- ----
Data processed at Fri 21Jun2024 02:30 GMT

Parsing this webpage?

Checkout our new Data API! CWMSDataAPI (CDA)

Timeseries IDs (TSIDs)

TSIDs used from left to right in the data table
LANA.Precip-Inc.Total.1Hour.1Hour.Ccp-Rev
LANA.Stage.Inst.1Hour.0.Ccp-Rev
LANA.Flow.Inst.1Hour.0.Ccp-Rev
LANA.Volt-Battery Load.Inst.1Hour.0.Ccp-Rev

                            

All information presented herein is the property of the government of the United States of America and may be revised or deleted at any time without prior notice. Dissemination of this information without the expressed written consent of the Public Affairs Office, Tulsa District U.S. Army Corps of Engineers is strictly prohibited. These data are gathered electronically and, as presented, have NOT undergone any form of quality control. These data are NOT guaranteed to be valid or correct.